Time;durP1;ratioP1;P1;durP2;ratioP2;P2;SDS_P1;SDS_P2;PMS_P1;PMS_P2;Temp;Humidity;BMP_temperature;BMP_pressure;BME280_temperature;BME280_humidity;BME280_pressure;Samples;Min_cycle;Max_cycle;Signal;HPM_P1;HPM_P2
2022/03/12 00:01:29;;;;;;;20.88;10.55;;;;;;;7.25;70.43;100185.38;5094053;28;20035;-61
2022/03/12 00:03:55;;;;;;;17.73;10.40;;;;;;;7.24;70.15;100183.66;5091286;28;20027;-61
2022/03/12 00:06:23;;;;;;;20.13;9.50;;;;;;;7.22;70.82;100180.16;5093614;28;20663;-61
2022/03/12 00:08:51;;;;;;;18.77;10.23;;;;;;;7.21;71.54;100183.72;5094112;28;20145;-61
2022/03/12 00:11:16;;;;;;;19.13;10.73;;;;;;;7.20;72.13;100186.38;5091067;28;20016;-61
2022/03/12 00:13:43;;;;;;;23.33;13.00;;;;;;;7.26;71.72;100180.97;5091397;28;20471;-61
2022/03/12 00:16:13;;;;;;;28.20;15.02;;;;;;;7.32;70.45;100192.34;5091543;28;20039;-61
2022/03/12 00:18:40;;;;;;;20.08;11.90;;;;;;;7.37;70.80;100194.91;5091131;28;20093;-61
2022/03/12 00:21:06;;;;;;;22.35;12.80;;;;;;;7.34;72.11;100194.94;5090762;28;20542;-61
2022/03/12 00:23:31;;;;;;;23.35;13.18;;;;;;;7.34;71.36;100195.84;5091135;28;20034;-61
2022/03/12 00:25:59;;;;;;;21.60;13.73;;;;;;;7.40;71.26;100208.94;5090869;28;20024;-61
2022/03/12 00:28:26;;;;;;;22.20;11.85;;;;;;;7.38;70.92;100201.94;5091028;28;20434;-61
2022/03/12 00:30:52;;;;;;;26.23;13.95;;;;;;;7.39;70.59;100204.56;5090880;28;20047;-61
2022/03/12 00:33:19;;;;;;;30.20;16.30;;;;;;;7.45;70.89;100207.09;5090871;28;20495;-61
2022/03/12 00:35:49;;;;;;;21.17;13.80;;;;;;;7.57;68.94;100214.84;5091025;28;20020;-61
2022/03/12 00:38:16;;;;;;;26.55;14.43;;;;;;;7.63;67.53;100219.13;5091206;28;20024;-61
2022/03/12 00:40:42;;;;;;;24.60;14.52;;;;;;;7.66;68.32;100214.66;5090948;28;20395;-61
2022/03/12 00:43:09;;;;;;;29.02;14.15;;;;;;;7.63;68.60;100220.00;5091256;28;20394;-61
2022/03/12 00:45:34;;;;;;;28.90;15.30;;;;;;;7.62;68.57;100223.56;5090518;28;20019;-61
2022/03/12 00:47:59;;;;;;;31.77;15.38;;;;;;;7.58;68.63;100219.22;5093088;28;20027;-61
2022/03/12 00:50:25;;;;;;;24.85;14.70;;;;;;;7.54;68.47;100214.00;5090429;28;20043;-61
2022/03/12 00:52:50;;;;;;;28.10;14.32;;;;;;;7.44;69.95;100213.31;5093119;28;20016;-61
2022/03/12 00:55:16;;;;;;;24.58;14.65;;;;;;;7.34;70.54;100216.13;5090670;28;20430;-61
2022/03/12 00:57:42;;;;;;;25.55;13.20;;;;;;;7.26;72.20;100213.59;5090805;28;20028;-61
2022/03/12 01:00:20;;;;;;;25.40;14.13;;;;;;;7.21;71.97;100223.38;5090328;28;20073;-61
2022/03/12 01:02:46;;;;;;;25.20;14.38;;;;;;;7.11;72.18;100210.31;5089752;28;20476;-61
2022/03/12 01:05:16;;;;;;;23.58;13.00;;;;;;;7.14;72.51;100221.72;5089399;28;20062;-61
2022/03/12 01:07:43;;;;;;;22.40;12.70;;;;;;;7.17;72.84;100226.97;5090518;28;20020;-61
2022/03/12 01:10:08;;;;;;;26.27;13.27;;;;;;;7.10;73.05;100221.81;5108501;28;20024;-61
2022/03/12 01:12:34;;;;;;;25.38;13.52;;;;;;;7.05;73.68;100221.84;5110316;28;20034;-61
2022/03/12 01:14:59;;;;;;;24.42;12.93;;;;;;;7.01;74.37;100228.09;5108031;28;20590;-61
2022/03/12 01:17:25;;;;;;;24.90;12.90;;;;;;;7.04;75.27;100228.06;5089681;28;20545;-61
2022/03/12 01:19:50;;;;;;;27.45;13.80;;;;;;;7.00;74.76;100234.28;5089909;28;20024;-61
2022/03/12 01:22:19;;;;;;;19.48;11.85;;;;;;;6.92;74.16;100236.16;5071544;28;20032;-61
2022/03/12 01:24:47;;;;;;;25.33;13.95;;;;;;;6.89;73.93;100223.00;5089818;28;20051;-61
2022/03/12 01:27:15;;;;;;;26.05;13.13;;;;;;;6.93;73.50;100244.97;5096718;28;20099;-61
2022/03/12 01:29:42;;;;;;;21.80;13.32;;;;;;;6.91;72.91;100239.72;5106692;28;20024;-61
2022/03/12 01:32:08;;;;;;;22.83;13.20;;;;;;;7.01;72.98;100238.69;5110471;28;20020;-61
2022/03/12 01:34:34;;;;;;;21.98;13.32;;;;;;;6.99;73.13;100240.47;5108155;28;20514;-61
2022/03/12 01:36:59;;;;;;;20.83;12.38;;;;;;;6.95;73.72;100244.06;5094084;28;20111;-61
2022/03/12 01:39:25;;;;;;;22.30;12.63;;;;;;;6.95;74.04;100244.06;5089141;28;20475;-61
2022/03/12 01:41:52;;;;;;;21.58;12.77;;;;;;;6.86;74.99;100238.91;5089501;28;20016;-61
2022/03/12 01:44:18;;;;;;;25.17;12.23;;;;;;;6.86;75.08;100236.25;5089639;28;20479;-61
2022/03/12 01:46:46;;;;;;;25.33;14.30;;;;;;;6.70;75.15;100226.81;5089749;28;20077;-61
2022/03/12 01:49:17;;;;;;;28.30;13.43;;;;;;;6.79;74.67;100237.22;5089498;28;20030;-61
2022/03/12 01:51:44;;;;;;;23.83;14.43;;;;;;;6.92;73.25;100241.44;5089723;28;20027;-61
2022/03/12 01:54:11;;;;;;;26.40;12.63;;;;;;;6.99;73.95;100240.47;5089904;28;20115;-61
2022/03/12 01:56:38;;;;;;;26.08;13.13;;;;;;;6.95;73.71;100238.78;5088769;28;20028;-61
2022/03/12 01:59:04;;;;;;;19.63;12.38;;;;;;;6.99;74.63;100235.19;5089042;28;20111;-61
2022/03/12 02:01:31;;;;;;;23.52;13.82;;;;;;;6.99;73.98;100229.88;5089353;28;20036;-61
2022/03/12 02:03:58;;;;;;;24.77;13.73;;;;;;;7.01;74.61;100233.41;5089602;28;20028;-61
2022/03/12 02:06:24;;;;;;;22.17;13.07;;;;;;;7.05;74.36;100231.59;5089714;28;20470;-61
2022/03/12 02:08:54;;;;;;;22.65;11.63;;;;;;;6.98;73.45;100237.84;5094407;28;20050;-61
2022/03/12 02:11:26;;;;;;;23.88;13.25;;;;;;;6.99;73.40;100229.88;5089306;28;20027;-61
2022/03/12 02:14:00;;;;;;;20.42;12.40;;;;;;;7.01;73.15;100249.25;5089160;28;20106;-61
2022/03/12 02:16:26;;;;;;;24.30;13.55;;;;;;;6.99;73.06;100229.88;5091595;28;20036;-61
2022/03/12 02:18:51;;;;;;;23.40;12.57;;;;;;;7.01;73.30;100233.41;5088787;28;20097;-61
2022/03/12 02:21:38;;;;;;;21.45;11.98;;;;;;;6.99;74.08;100240.47;5088938;28;20119;-61
2022/03/12 02:24:12;;;;;;;24.13;13.02;;;;;;;7.07;73.59;100245.66;5089580;28;20092;-61
2022/03/12 02:26:42;;;;;;;23.70;14.27;;;;;;;7.10;71.67;100243.81;5089716;28;20032;-61
2022/03/12 02:29:11;;;;;;;30.65;13.43;;;;;;;7.06;71.81;100242.13;5089241;28;20092;-61
2022/03/12 02:31:37;;;;;;;25.40;13.10;;;;;;;7.18;72.54;100252.50;5089360;28;20426;-61
2022/03/12 02:34:06;;;;;;;23.38;12.80;;;;;;;7.16;72.92;100262.25;5089136;28;20028;-61
2022/03/12 02:36:31;;;;;;;27.02;12.55;;;;;;;7.14;73.15;100252.59;5089305;28;20471;-61
2022/03/12 02:39:01;;;;;;;22.30;11.82;;;;;;;7.18;74.00;100254.31;5088923;28;20027;-61
2022/03/12 02:41:27;;;;;;;20.45;12.07;;;;;;;7.18;75.60;100252.50;5089589;28;20034;-61
2022/03/12 02:43:52;;;;;;;23.10;11.23;;;;;;;7.17;75.25;100252.53;5089093;28;20028;-61
2022/03/12 02:46:18;;;;;;;26.05;13.30;;;;;;;7.03;75.18;100244.84;5089385;28;20038;-61
2022/03/12 02:48:53;;;;;;;32.25;13.55;;;;;;;7.11;73.67;100256.16;5090982;28;20111;-61
2022/03/12 02:51:23;;;;;;;23.90;12.48;;;;;;;7.15;73.29;100255.19;5089130;28;20024;-61
2022/03/12 02:53:56;;;;;;;27.90;12.48;;;;;;;7.15;73.47;100252.56;5088764;28;20073;-61
2022/03/12 02:56:23;;;;;;;26.65;13.65;;;;;;;7.23;72.89;100261.25;5089181;28;20386;-61
2022/03/12 02:58:48;;;;;;;21.77;12.93;;;;;;;7.26;72.93;100245.34;5088761;28;20487;-61
2022/03/12 03:01:14;;;;;;;22.33;12.35;;;;;;;7.29;72.37;100255.88;5090505;28;20020;-61
2022/03/12 03:03:44;;;;;;;25.08;12.95;;;;;;;7.37;73.43;100248.69;5089274;28;20023;-61
2022/03/12 03:06:13;;;;;;;24.10;11.88;;;;;;;7.36;73.96;100256.66;5089659;28;20595;-61
2022/03/12 03:08:39;;;;;;;22.80;12.98;;;;;;;7.31;73.06;100251.44;5096510;28;20020;-61
2022/03/12 03:11:16;;;;;;;23.05;13.25;;;;;;;7.39;74.33;100252.19;5109048;28;20041;-61
2022/03/12 03:13:43;;;;;;;25.95;12.98;;;;;;;7.47;74.60;100250.28;5092108;28;20399;-61
2022/03/12 03:16:19;;;;;;;27.15;13.00;;;;;;;7.48;74.68;100246.75;5093007;28;20028;-61
2022/03/12 03:18:50;;;;;;;24.50;12.73;;;;;;;7.57;74.21;100256.31;5092073;28;20119;-61
2022/03/12 03:21:17;;;;;;;19.15;11.57;;;;;;;7.55;73.73;100258.97;5091942;28;20028;-61
2022/03/12 03:23:44;;;;;;;22.00;13.07;;;;;;;7.48;73.62;100251.19;5092280;28;20396;-61
2022/03/12 03:26:11;;;;;;;25.70;13.05;;;;;;;7.49;74.47;100244.97;5093447;28;20483;-61
2022/03/12 03:28:36;;;;;;;26.35;12.80;;;;;;;7.31;72.89;100211.75;5109911;28;20024;-61
2022/03/12 03:31:05;;;;;;;23.85;12.45;;;;;;;7.57;72.33;100257.19;5112230;28;20016;-61
2022/03/12 03:33:30;;;;;;;23.92;13.65;;;;;;;7.58;72.78;100263.34;5110284;28;20101;-61
2022/03/12 03:35:55;;;;;;;21.67;12.98;;;;;;;7.65;71.78;100273.81;5110383;28;20027;-61
2022/03/12 03:38:21;;;;;;;26.35;13.57;;;;;;;7.70;71.37;100274.63;5111000;28;20019;-61
2022/03/12 03:40:47;;;;;;;23.00;12.45;;;;;;;7.66;71.17;100286.13;5111878;28;20558;-61
2022/03/12 03:43:14;;;;;;;21.52;12.30;;;;;;;7.59;71.53;100276.56;5100662;28;20032;-61
2022/03/12 03:45:46;;;;;;;23.67;12.07;;;;;;;7.48;73.12;100286.44;5094475;28;20029;-61
2022/03/12 03:48:14;;;;;;;22.92;12.10;;;;;;;7.44;74.54;100295.34;5091913;28;20372;-61
2022/03/12 03:50:41;;;;;;;21.20;12.23;;;;;;;7.40;75.12;100296.28;5091906;28;20442;-61
2022/03/12 03:53:06;;;;;;;19.95;12.32;;;;;;;7.38;74.92;100303.34;5091738;28;20035;-61
2022/03/12 03:55:33;;;;;;;21.77;12.20;;;;;;;7.40;75.13;100304.22;5073293;28;20032;-61
2022/03/12 03:58:00;;;;;;;22.15;12.50;;;;;;;7.48;74.94;100314.69;5091315;28;20074;-61
2022/03/12 04:00:26;;;;;;;22.90;12.75;;;;;;;7.51;75.29;100314.66;5091337;28;20031;-61
2022/03/12 04:03:04;;;;;;;21.42;11.75;;;;;;;7.53;75.82;100319.00;5091484;28;20026;-61
2022/03/12 04:05:39;;;;;;;21.67;13.27;;;;;;;7.57;75.68;100318.06;5091659;28;20030;-61
2022/03/12 04:08:07;;;;;;;23.15;13.18;;;;;;;7.62;77.11;100323.28;5093884;28;20772;-61
2022/03/12 04:10:37;;;;;;;22.60;11.98;;;;;;;7.68;78.06;100324.06;5091040;28;20031;-61
2022/03/12 04:13:10;;;;;;;24.88;12.00;;;;;;;7.66;78.18;100325.00;5099755;28;20077;-61
2022/03/12 04:15:37;;;;;;;22.00;12.15;;;;;;;7.61;77.65;100332.97;5111593;28;20039;-61
2022/03/12 04:18:05;;;;;;;21.80;12.90;;;;;;;7.63;78.55;100327.66;5111119;28;20043;-61
2022/03/12 04:20:31;;;;;;;25.45;13.32;;;;;;;7.64;77.68;100324.13;5104537;28;20492;-61
2022/03/12 04:22:57;;;;;;;22.85;11.88;;;;;;;7.59;77.73;100329.50;5091059;28;20045;-61
2022/03/12 04:25:23;;;;;;;24.27;12.90;;;;;;;7.61;77.41;100321.53;5091240;28;20055;-61
2022/03/12 04:27:49;;;;;;;21.20;11.25;;;;;;;7.63;77.47;100325.03;5090689;28;20020;-61
2022/03/12 04:30:20;;;;;;;28.30;13.88;;;;;;;7.63;75.87;100339.13;5090648;28;20482;-61
2022/03/12 04:32:46;;;;;;;22.65;11.85;;;;;;;7.39;76.88;100347.47;5090981;28;20020;-62
2022/03/12 04:35:13;;;;;;;21.73;12.18;;;;;;;7.34;77.32;100336.06;5090957;28;20024;-61
2022/03/12 04:37:38;;;;;;;20.10;11.82;;;;;;;7.32;77.41;100335.22;5091257;28;20096;-61
2022/03/12 04:40:11;;;;;;;20.55;12.15;;;;;;;7.60;77.25;100322.44;5090479;28;20032;-61
2022/03/12 04:42:39;;;;;;;20.23;11.02;;;;;;;7.70;77.49;100330.22;5090587;28;20063;-61
2022/03/12 04:45:08;;;;;;;20.50;10.75;;;;;;;7.66;76.20;100333.78;5090551;28;20019;-61
2022/03/12 04:47:34;;;;;;;22.10;10.80;;;;;;;7.52;75.52;100333.16;5092970;28;20023;-61
2022/03/12 04:49:59;;;;;;;23.35;11.48;;;;;;;7.48;73.52;100326.13;5090161;28;20026;-61
2022/03/12 04:52:25;;;;;;;30.17;11.80;;;;;;;7.77;72.52;100331.88;5090974;28;20395;-61
2022/03/12 04:54:50;;;;;;;18.63;10.20;;;;;;;7.86;70.54;100323.75;5090590;28;20028;-61
2022/03/12 04:57:16;;;;;;;26.75;10.98;;;;;;;7.89;70.61;100326.34;5092946;28;20034;-61
2022/03/12 04:59:41;;;;;;;23.67;12.05;;;;;;;7.90;70.12;100335.19;5090113;28;20031;-61
2022/03/12 05:02:11;;;;;;;24.70;11.27;;;;;;;7.88;68.70;100332.56;5090505;28;20103;-61
2022/03/12 05:04:37;;;;;;;19.90;10.73;;;;;;;7.86;69.11;100333.47;5090067;28;20032;-61
2022/03/12 05:07:09;;;;;;;19.65;10.68;;;;;;;7.85;70.20;100332.59;5089248;28;20047;-61
2022/03/12 05:09:35;;;;;;;22.25;11.20;;;;;;;7.91;69.82;100337.78;5102700;28;20435;-62
2022/03/12 05:12:05;;;;;;;25.85;12.02;;;;;;;7.90;67.86;100341.34;5093249;28;20030;-62
2022/03/12 05:14:35;;;;;;;22.35;10.95;;;;;;;7.96;67.49;100340.34;5089794;28;20119;-61
2022/03/12 05:17:05;;;;;;;39.35;12.73;;;;;;;7.88;67.55;100336.97;5091146;28;20032;-61
2022/03/12 05:19:35;;;;;;;20.63;9.80;;;;;;;7.86;66.76;100339.66;5107501;28;20047;-61
2022/03/12 05:22:00;;;;;;;21.55;11.80;;;;;;;7.88;65.53;100337.84;5095080;28;20086;-61
2022/03/12 05:24:26;;;;;;;20.80;11.40;;;;;;;7.92;65.15;100339.53;5089734;28;20028;-61
2022/03/12 05:26:51;;;;;;;19.23;9.60;;;;;;;7.93;63.92;100343.06;5092740;28;20030;-61
2022/03/12 05:29:21;;;;;;;22.48;11.30;;;;;;;7.99;60.97;100333.25;5089409;28;20031;-61
2022/03/12 05:31:46;;;;;;;19.48;10.43;;;;;;;7.98;62.18;100328.84;5090024;28;20016;-61
2022/03/12 05:34:12;;;;;;;20.55;10.35;;;;;;;7.99;62.04;100346.47;5101151;28;20379;-61
2022/03/12 05:36:37;;;;;;;19.25;10.40;;;;;;;7.99;63.23;100342.94;5110736;28;20111;-61
2022/03/12 05:39:03;;;;;;;19.30;10.45;;;;;;;8.00;62.78;100342.06;5109745;28;20020;-61
2022/03/12 05:41:34;;;;;;;24.00;10.52;;;;;;;8.03;61.97;100342.00;5109791;28;20028;-61
2022/03/12 05:44:00;;;;;;;21.42;10.48;;;;;;;8.04;61.60;100349.94;5109787;28;20085;-61
2022/03/12 05:46:26;;;;;;;24.92;10.43;;;;;;;8.02;61.75;100357.00;5110152;28;20023;-62
2022/03/12 05:48:51;;;;;;;24.20;10.80;;;;;;;8.01;63.22;100360.59;5108950;28;20026;-61
2022/03/12 05:51:17;;;;;;;17.30;11.60;;;;;;;8.05;63.94;100358.75;5099765;28;20355;-61
2022/03/12 05:53:43;;;;;;;20.45;11.98;;;;;;;8.02;65.36;100362.31;5092060;28;20082;-61
2022/03/12 05:56:08;;;;;;;23.75;10.27;;;;;;;7.94;66.09;100360.69;5089852;28;20382;-61
2022/03/12 05:58:36;;;;;;;18.33;9.77;;;;;;;7.93;67.72;100359.84;5089701;28;20028;-61
2022/03/12 06:01:02;;;;;;;18.35;11.35;;;;;;;7.91;68.13;100366.94;5089082;28;20052;-61
2022/03/12 06:03:27;;;;;;;19.73;10.60;;;;;;;7.83;67.46;100358.22;5089571;28;20059;-61
2022/03/12 06:05:58;;;;;;;18.80;10.63;;;;;;;7.99;68.33;100365.03;5085673;28;20542;-61
2022/03/12 06:08:25;;;;;;;21.08;11.10;;;;;;;7.93;68.15;100365.13;5106973;28;20020;-61
2022/03/12 06:10:52;;;;;;;21.60;10.93;;;;;;;7.96;67.94;100362.44;5109211;28;20579;-61
2022/03/12 06:13:18;;;;;;;17.65;9.82;;;;;;;7.99;65.07;100367.66;5099560;28;20386;-61
2022/03/12 06:15:48;;;;;;;19.42;10.75;;;;;;;8.07;65.82;100366.69;5089833;28;20481;-61
2022/03/12 06:18:14;;;;;;;18.50;9.27;;;;;;;8.19;65.49;100355.88;5089628;28;20052;-61
2022/03/12 06:20:40;;;;;;;20.23;10.75;;;;;;;8.42;64.79;100361.66;5089202;28;20024;-61
2022/03/12 06:23:06;;;;;;;22.52;9.80;;;;;;;8.55;62.41;100361.38;5089433;28;20024;-61
2022/03/12 06:25:31;;;;;;;20.40;9.50;;;;;;;8.60;61.97;100356.03;5089858;28;20024;-61
2022/03/12 06:27:57;;;;;;;18.25;10.50;;;;;;;8.59;63.09;100364.88;5089423;28;20394;-61
2022/03/12 06:30:26;;;;;;;20.27;9.68;;;;;;;8.57;60.93;100371.97;5089001;28;20024;-61
2022/03/12 06:32:55;;;;;;;20.25;9.52;;;;;;;8.51;61.73;100366.78;5089780;28;20020;-61
2022/03/12 06:35:20;;;;;;;19.25;9.45;;;;;;;8.45;61.73;100366.91;5089318;28;20492;-61
2022/03/12 06:37:46;;;;;;;17.65;8.98;;;;;;;8.49;62.10;100369.47;5089142;28;20103;-61
2022/03/12 06:40:14;;;;;;;19.55;9.73;;;;;;;8.55;62.40;100368.50;5089031;28;20032;-61
2022/03/12 06:42:42;;;;;;;17.45;9.15;;;;;;;8.72;62.61;100366.38;5091355;28;20475;-61
2022/03/12 06:45:08;;;;;;;16.48;8.63;;;;;;;8.80;61.86;100375.94;5095745;28;20023;-61
2022/03/12 06:47:38;;;;;;;17.25;8.98;;;;;;;9.05;60.88;100376.31;5093404;28;20020;-61
2022/03/12 06:50:08;;;;;;;19.60;9.65;;;;;;;9.14;61.37;100382.28;5092227;28;20036;-61
2022/03/12 06:52:34;;;;;;;14.23;8.45;;;;;;;9.02;61.75;100365.75;5092645;28;20070;-61
2022/03/12 06:55:00;;;;;;;16.23;8.55;;;;;;;9.04;62.56;100387.84;5093007;28;20024;-61
2022/03/12 06:57:25;;;;;;;16.17;8.43;;;;;;;9.31;61.69;100369.53;5092492;28;20031;-61
2022/03/12 06:59:51;;;;;;;20.02;8.77;;;;;;;9.42;60.73;100376.41;5094710;28;20024;-62
2022/03/12 07:02:17;;;;;;;19.95;10.75;;;;;;;9.42;60.80;100371.09;5092742;28;20480;-62
2022/03/12 07:04:42;;;;;;;21.90;9.73;;;;;;;9.47;60.35;100375.41;5092585;28;20039;-61
2022/03/12 07:07:08;;;;;;;15.82;8.13;;;;;;;9.44;58.10;100370.13;5100887;28;20427;-61
2022/03/12 07:09:36;;;;;;;18.35;9.48;;;;;;;9.46;57.77;100370.97;5109526;28;20023;-61
2022/03/12 07:12:03;;;;;;;19.02;8.90;;;;;;;9.50;57.54;100375.31;5113062;28;20035;-61
2022/03/12 07:14:30;;;;;;;16.75;9.18;;;;;;;9.49;56.58;100378.88;5112468;28;20027;-61
2022/03/12 07:16:56;;;;;;;15.35;8.27;;;;;;;9.46;55.41;100373.63;5112899;28;20038;-61
2022/03/12 07:19:23;;;;;;;16.02;8.90;;;;;;;9.50;55.97;100370.03;5111973;28;20044;-61
2022/03/12 07:21:51;;;;;;;16.08;8.07;;;;;;;9.80;56.13;100374.59;5098553;28;20039;-61
2022/03/12 07:24:17;;;;;;;19.08;8.55;;;;;;;10.20;54.00;100370.09;5094917;28;20040;-61
2022/03/12 07:26:44;;;;;;;17.30;8.05;;;;;;;10.40;53.30;100364.25;5094045;28;20038;-62
2022/03/12 07:29:09;;;;;;;17.83;8.88;;;;;;;10.44;51.15;100366.78;5112191;28;20054;-61
2022/03/12 07:31:37;;;;;;;16.90;7.85;;;;;;;10.52;51.54;100367.47;5112269;28;20027;-61
2022/03/12 07:34:04;;;;;;;14.07;7.80;;;;;;;10.68;50.78;100361.72;5112332;28;20080;-61
2022/03/12 07:36:29;;;;;;;21.48;9.35;;;;;;;10.77;50.86;100361.47;5112313;28;20036;-61
2022/03/12 07:38:56;;;;;;;14.82;8.63;;;;;;;10.77;49.56;100357.03;5108517;28;20615;-61
2022/03/12 07:41:21;;;;;;;18.50;9.20;;;;;;;10.82;49.52;100364.88;5112568;28;20028;-61
2022/03/12 07:43:47;;;;;;;18.05;8.63;;;;;;;10.86;49.79;100366.53;5111792;28;20111;-61
2022/03/12 07:46:12;;;;;;;14.95;8.95;;;;;;;10.97;49.26;100375.09;5101451;28;20052;-61
2022/03/12 07:48:37;;;;;;;21.77;9.93;;;;;;;11.17;48.64;100378.06;5109635;28;20020;-61
2022/03/12 07:51:03;;;;;;;21.25;8.57;;;;;;;11.37;48.23;100381.00;5103873;28;20069;-61
2022/03/12 07:53:30;;;;;;;17.58;8.90;;;;;;;11.66;49.95;100370.38;5090800;28;20024;-61
2022/03/12 07:55:55;;;;;;;15.55;9.35;;;;;;;12.23;47.53;100368.47;5094060;28;20023;-61
2022/03/12 07:58:21;;;;;;;15.82;8.68;;;;;;;13.12;46.05;100371.53;5091445;28;20607;-61
2022/03/12 08:00:47;;;;;;;15.32;8.68;;;;;;;14.02;41.61;100377.72;5091192;28;20028;-61
2022/03/12 08:03:13;;;;;;;16.17;8.80;;;;;;;14.65;41.25;100376.88;5091657;28;20433;-61
2022/03/12 08:05:38;;;;;;;18.65;8.57;;;;;;;14.94;40.49;100376.44;5091634;28;20031;-61
2022/03/12 08:08:05;;;;;;;18.85;9.07;;;;;;;15.09;40.04;100381.13;5091266;28;20027;-61
2022/03/12 08:11:24;;;;;;;15.73;8.32;;;;;;;16.07;39.90;100384.53;5090895;28;20024;-61
2022/03/12 08:13:18;;;;;;;16.25;8.35;;;;;;;16.83;37.95;100385.13;5094706;28;20652;-61
2022/03/12 08:15:45;;;;;;;13.77;8.10;;;;;;;17.33;36.82;100393.16;5111804;28;20500;-62
2022/03/12 08:18:11;;;;;;;16.38;8.43;;;;;;;17.56;35.82;100395.50;5111484;28;20035;-62
2022/03/12 08:20:37;;;;;;;17.67;8.75;;;;;;;17.94;35.91;100402.31;5107645;28;20442;-62
2022/03/12 08:23:02;;;;;;;20.25;10.75;;;;;;;18.22;35.68;100399.78;5091029;28;20059;-62
2022/03/12 08:25:29;;;;;;;16.83;8.52;;;;;;;18.74;34.95;100384.16;5091030;28;20146;-62
2022/03/12 08:27:54;;;;;;;16.65;8.63;;;;;;;18.97;33.99;100399.81;5090620;28;20039;-62
2022/03/12 08:30:20;;;;;;;18.38;9.38;;;;;;;18.61;34.73;100395.75;5090558;28;20081;-62
2022/03/12 08:32:45;;;;;;;16.65;8.95;;;;;;;18.60;35.15;100397.56;5090174;28;20460;-62
2022/03/12 08:35:13;;;;;;;14.68;8.27;;;;;;;18.82;34.66;100392.63;5090912;28;20544;-62
2022/03/12 08:37:39;;;;;;;20.17;10.02;;;;;;;19.18;34.86;100400.31;5091244;28;20034;-62
2022/03/12 08:40:06;;;;;;;18.40;10.23;;;;;;;18.95;33.48;100403.53;5072207;28;20028;-62
2022/03/12 08:42:33;;;;;;;19.30;9.35;;;;;;;18.64;33.73;100404.53;5090630;28;20093;-62
2022/03/12 08:44:58;;;;;;;17.08;8.98;;;;;;;19.01;34.83;100403.19;5093494;28;20471;-62
2022/03/12 08:47:24;;;;;;;15.35;8.65;;;;;;;19.43;33.85;100411.34;5090383;28;20123;-62
2022/03/12 08:49:49;;;;;;;17.67;9.57;;;;;;;19.54;33.24;100409.72;5090484;28;20486;-62
2022/03/12 08:52:14;;;;;;;18.67;9.50;;;;;;;19.55;32.75;100410.59;5090445;28;20028;-62
2022/03/12 08:54:40;;;;;;;16.23;9.30;;;;;;;19.78;32.79;100407.28;5090750;28;20077;-62
2022/03/12 08:57:05;;;;;;;16.25;9.88;;;;;;;19.89;33.27;100404.75;5091328;28;20024;-62
2022/03/12 08:59:31;;;;;;;21.67;10.07;;;;;;;20.04;32.18;100403.78;5090202;28;20098;-62
2022/03/12 09:01:57;;;;;;;20.98;10.35;;;;;;;20.59;32.05;100415.38;5089882;28;20364;-62
2022/03/12 09:04:23;;;;;;;17.00;9.05;;;;;;;21.10;32.55;100415.56;5090113;28;20035;-62
2022/03/12 09:06:48;;;;;;;19.88;10.00;;;;;;;21.12;31.60;100419.03;5090079;28;20032;-62
2022/03/12 09:09:14;;;;;;;18.80;10.05;;;;;;;21.07;30.73;100416.63;5090926;28;20107;-62
2022/03/12 09:11:39;;;;;;;16.50;9.27;;;;;;;20.66;31.51;100414.00;5090087;28;20020;-62
2022/03/12 09:14:05;;;;;;;19.15;10.18;;;;;;;20.41;31.71;100413.91;5090018;28;20020;-62
2022/03/12 09:16:30;;;;;;;26.83;11.15;;;;;;;20.40;32.33;100404.09;5092419;28;20024;-62
2022/03/12 09:18:56;;;;;;;17.65;9.70;;;;;;;20.82;31.74;100401.19;5088969;28;20048;-63
2022/03/12 09:21:21;;;;;;;19.45;9.63;;;;;;;21.38;31.35;100396.41;5089439;28;20035;-62
2022/03/12 09:23:47;;;;;;;16.25;9.75;;;;;;;21.43;32.52;100394.25;5089604;28;20441;-62
2022/03/12 09:26:13;;;;;;;19.88;10.13;;;;;;;21.15;31.96;100399.88;5090155;28;20107;-62
2022/03/12 09:28:39;;;;;;;17.98;9.95;;;;;;;20.68;32.01;100390.44;5090298;28;20050;-62
2022/03/12 09:31:06;;;;;;;18.88;9.93;;;;;;;20.48;31.82;100387.34;5091997;28;20016;-62
2022/03/12 09:33:32;;;;;;;19.55;10.70;;;;;;;20.19;33.14;100385.72;5089998;28;20036;-62
2022/03/12 09:35:58;;;;;;;17.02;9.50;;;;;;;20.19;32.79;100392.00;5090121;28;20383;-62
2022/03/12 09:38:25;;;;;;;20.08;10.68;;;;;;;20.11;32.67;100394.31;5089641;28;20057;-62
2022/03/12 09:40:50;;;;;;;23.65;9.65;;;;;;;20.01;32.34;100393.19;5091913;28;20098;-62
2022/03/12 09:43:16;;;;;;;17.10;9.38;;;;;;;19.91;32.63;100401.97;5089538;28;20020;-62
2022/03/12 09:45:41;;;;;;;19.60;10.48;;;;;;;19.77;32.70;100399.31;5089823;28;20073;-62
2022/03/12 09:48:08;;;;;;;20.83;10.63;;;;;;;19.66;32.93;100402.66;5089678;28;20039;-62
2022/03/12 09:50:34;;;;;;;16.00;9.43;;;;;;;19.66;33.59;100397.28;5089330;28;20034;-62
2022/03/12 09:52:59;;;;;;;18.90;9.13;;;;;;;19.90;33.22;100400.25;5087999;28;20016;-62
2022/03/12 09:55:24;;;;;;;16.08;9.63;;;;;;;20.12;33.18;100395.16;5089711;28;20024;-62
2022/03/12 09:57:50;;;;;;;16.95;9.20;;;;;;;20.35;31.78;100387.31;5089485;28;20031;-62
2022/03/12 10:00:18;;;;;;;17.73;9.40;;;;;;;20.79;31.57;100385.16;5089481;28;20027;-62
2022/03/12 10:02:44;;;;;;;16.95;9.25;;;;;;;21.27;31.99;100385.50;5107458;28;20020;-62
2022/03/12 10:05:13;;;;;;;20.40;9.60;;;;;;;21.90;30.92;100387.16;5108532;28;20402;-61
2022/03/12 10:07:42;;;;;;;18.02;10.30;;;;;;;22.34;29.73;100381.16;5108068;28;20077;-62
2022/03/12 10:10:15;;;;;;;17.30;9.65;;;;;;;22.55;29.70;100374.16;5092052;28;20515;-63
2022/03/12 10:13:23;;;;;;;17.92;9.90;;;;;;;22.60;30.04;100374.66;5089532;28;20039;-63
2022/03/12 10:15:48;;;;;;;16.30;10.05;;;;;;;22.72;29.77;100373.72;5026548;28;20096;-62
2022/03/12 10:18:14;;;;;;;19.92;10.82;;;;;;;22.89;30.14;100370.59;5029623;28;20053;-63
2022/03/12 10:20:40;;;;;;;18.48;10.40;;;;;;;22.81;30.82;100375.75;5034290;28;20037;-64
2022/03/12 10:23:07;;;;;;;17.75;10.77;;;;;;;22.11;30.45;100376.56;5049733;28;20029;-64
2022/03/12 10:25:33;;;;;;;19.10;9.70;;;;;;;22.00;31.15;100376.53;5050662;28;20032;-64
2022/03/12 10:27:58;;;;;;;20.92;10.63;;;;;;;21.95;30.99;100370.56;5050436;28;20033;-64
2022/03/12 10:30:25;;;;;;;18.13;11.05;;;;;;;21.58;30.65;100376.91;5049916;28;20083;-66
2022/03/12 10:32:51;;;;;;;21.58;9.95;;;;;;;21.29;30.09;100368.16;5050476;28;20560;-65
2022/03/12 10:35:19;;;;;;;20.00;11.05;;;;;;;21.46;32.11;100377.78;5050778;28;20033;-64
2022/03/12 10:37:49;;;;;;;23.27;10.77;;;;;;;21.19;30.98;100374.31;5050414;28;20372;-64
2022/03/12 10:40:17;;;;;;;21.40;10.45;;;;;;;20.95;33.08;100371.47;5049905;28;20512;-64
2022/03/12 10:42:59;;;;;;;22.90;10.48;;;;;;;20.70;32.94;100375.00;5050184;28;20045;-65
2022/03/12 10:45:26;;;;;;;21.92;10.52;;;;;;;20.52;32.86;100368.13;5050355;28;20028;-64
2022/03/12 10:47:57;;;;;;;18.35;10.13;;;;;;;19.79;32.39;100371.22;5050315;28;20510;-63
2022/03/12 10:50:27;;;;;;;24.02;11.00;;;;;;;19.51;33.61;100364.03;5049661;28;20173;-63
2022/03/12 10:52:56;;;;;;;23.42;11.52;;;;;;;19.21;32.87;100367.75;5068816;28;20059;-63
2022/03/12 10:55:24;;;;;;;18.23;10.45;;;;;;;19.55;33.87;100356.63;5092462;28;20118;-63
2022/03/12 10:58:08;;;;;;;22.23;10.63;;;;;;;19.49;34.73;100360.56;5092753;28;20391;-63
2022/03/12 11:00:38;;;;;;;22.40;11.18;;;;;;;19.42;34.33;100350.28;5092654;28;20047;-63
2022/03/12 11:03:06;;;;;;;23.35;11.00;;;;;;;19.24;33.36;100346.00;5092374;28;20035;-63
2022/03/12 11:05:34;;;;;;;18.48;10.75;;;;;;;19.33;34.50;100345.44;5095554;28;20116;-63
2022/03/12 11:08:16;;;;;;;18.63;10.00;;;;;;;19.49;34.41;100346.19;5105579;28;20031;-64
2022/03/12 11:10:58;;;;;;;21.15;9.90;;;;;;;19.49;34.74;100346.19;5092582;28;20372;-63
2022/03/12 11:13:47;;;;;;;19.67;10.77;;;;;;;19.23;34.95;100341.56;5092573;28;20028;-63
2022/03/12 11:16:28;;;;;;;20.35;10.57;;;;;;;19.30;35.32;100345.63;5092735;28;20119;-63
2022/03/12 11:18:57;;;;;;;23.90;11.38;;;;;;;19.57;33.56;100343.91;5094285;28;20112;-63